sensor_id;sensor_type;location;lat;lon;timestamp;P1;durP1;ratioP1;P2;durP2;ratioP2
31043;SDS011;17710;52.520;13.352;2023-10-19T00:00:02;21.52;;;12.85;;
31043;SDS011;17710;52.520;13.352;2023-10-19T00:02:44;22.77;;;12.13;;
31043;SDS011;17710;52.520;13.352;2023-10-19T00:05:12;23.38;;;13.10;;
31043;SDS011;17710;52.520;13.352;2023-10-19T00:07:41;22.08;;;12.30;;
31043;SDS011;17710;52.520;13.352;2023-10-19T00:10:07;24.20;;;12.27;;
31043;SDS011;17710;52.520;13.352;2023-10-19T00:12:34;24.85;;;12.95;;
31043;SDS011;17710;52.520;13.352;2023-10-19T00:15:01;22.73;;;12.65;;
31043;SDS011;17710;52.520;13.352;2023-10-19T00:17:28;23.60;;;12.10;;
31043;SDS011;17710;52.520;13.352;2023-10-19T00:19:57;24.15;;;13.23;;
31043;SDS011;17710;52.520;13.352;2023-10-19T00:22:34;20.80;;;12.00;;
31043;SDS011;17710;52.520;13.352;2023-10-19T00:25:02;23.70;;;12.35;;
31043;SDS011;17710;52.520;13.352;2023-10-19T00:27:29;22.92;;;12.50;;
31043;SDS011;17710;52.520;13.352;2023-10-19T00:29:56;21.30;;;12.27;;
31043;SDS011;17710;52.520;13.352;2023-10-19T00:32:31;25.38;;;13.02;;
31043;SDS011;17710;52.520;13.352;2023-10-19T00:37:29;22.75;;;13.02;;
31043;SDS011;17710;52.520;13.352;2023-10-19T00:39:57;24.40;;;12.13;;
31043;SDS011;17710;52.520;13.352;2023-10-19T00:42:40;21.67;;;12.40;;
31043;SDS011;17710;52.520;13.352;2023-10-19T00:45:11;22.08;;;12.00;;
31043;SDS011;17710;52.520;13.352;2023-10-19T00:47:38;23.25;;;12.63;;
31043;SDS011;17710;52.520;13.352;2023-10-19T00:50:06;23.05;;;12.57;;
31043;SDS011;17710;52.520;13.352;2023-10-19T00:52:39;25.15;;;14.77;;
31043;SDS011;17710;52.520;13.352;2023-10-19T00:55:08;29.40;;;11.98;;
31043;SDS011;17710;52.520;13.352;2023-10-19T00:57:37;23.45;;;12.48;;
31043;SDS011;17710;52.520;13.352;2023-10-19T01:00:07;21.02;;;12.95;;
31043;SDS011;17710;52.520;13.352;2023-10-19T01:02:37;24.10;;;12.90;;
31043;SDS011;17710;52.520;13.352;2023-10-19T01:05:09;25.15;;;14.02;;
31043;SDS011;17710;52.520;13.352;2023-10-19T01:07:38;25.50;;;14.25;;
31043;SDS011;17710;52.520;13.352;2023-10-19T01:10:06;26.08;;;12.90;;
31043;SDS011;17710;52.520;13.352;2023-10-19T01:12:33;29.77;;;13.63;;
31043;SDS011;17710;52.520;13.352;2023-10-19T01:15:06;26.17;;;13.65;;
31043;SDS011;17710;52.520;13.352;2023-10-19T01:17:37;24.73;;;13.55;;
31043;SDS011;17710;52.520;13.352;2023-10-19T01:20:08;23.02;;;13.25;;
31043;SDS011;17710;52.520;13.352;2023-10-19T01:22:47;31.05;;;14.43;;
31043;SDS011;17710;52.520;13.352;2023-10-19T01:27:58;26.95;;;13.93;;
31043;SDS011;17710;52.520;13.352;2023-10-19T01:30:32;26.88;;;13.65;;
31043;SDS011;17710;52.520;13.352;2023-10-19T01:32:58;27.58;;;14.15;;
31043;SDS011;17710;52.520;13.352;2023-10-19T01:35:24;24.33;;;13.93;;
31043;SDS011;17710;52.520;13.352;2023-10-19T01:37:53;24.50;;;13.85;;
31043;SDS011;17710;52.520;13.352;2023-10-19T01:40:18;27.75;;;15.07;;
31043;SDS011;17710;52.520;13.352;2023-10-19T01:42:46;28.65;;;15.27;;
31043;SDS011;17710;52.520;13.352;2023-10-19T01:47:39;28.63;;;14.70;;
31043;SDS011;17710;52.520;13.352;2023-10-19T01:50:08;32.00;;;14.45;;
31043;SDS011;17710;52.520;13.352;2023-10-19T01:52:45;28.00;;;14.48;;
31043;SDS011;17710;52.520;13.352;2023-10-19T01:55:13;26.55;;;14.68;;
31043;SDS011;17710;52.520;13.352;2023-10-19T01:57:45;25.95;;;13.70;;
31043;SDS011;17710;52.520;13.352;2023-10-19T02:00:12;25.15;;;14.30;;
31043;SDS011;17710;52.520;13.352;2023-10-19T02:02:42;33.67;;;15.20;;
31043;SDS011;17710;52.520;13.352;2023-10-19T02:05:08;30.60;;;13.80;;
31043;SDS011;17710;52.520;13.352;2023-10-19T02:07:40;25.55;;;14.18;;
31043;SDS011;17710;52.520;13.352;2023-10-19T02:12:36;27.48;;;14.27;;
31043;SDS011;17710;52.520;13.352;2023-10-19T02:15:07;26.70;;;14.32;;
31043;SDS011;17710;52.520;13.352;2023-10-19T02:17:34;22.95;;;13.32;;
31043;SDS011;17710;52.520;13.352;2023-10-19T02:22:25;26.38;;;14.93;;
31043;SDS011;17710;52.520;13.352;2023-10-19T02:24:53;23.27;;;13.95;;
31043;SDS011;17710;52.520;13.352;2023-10-19T02:29:46;29.27;;;15.13;;
31043;SDS011;17710;52.520;13.352;2023-10-19T02:32:12;28.77;;;15.25;;
31043;SDS011;17710;52.520;13.352;2023-10-19T02:34:39;28.10;;;15.35;;
31043;SDS011;17710;52.520;13.352;2023-10-19T02:37:06;24.58;;;14.93;;
31043;SDS011;17710;52.520;13.352;2023-10-19T02:39:32;24.83;;;15.25;;
31043;SDS011;17710;52.520;13.352;2023-10-19T02:41:59;31.48;;;14.93;;
31043;SDS011;17710;52.520;13.352;2023-10-19T02:44:27;30.50;;;16.58;;
31043;SDS011;17710;52.520;13.352;2023-10-19T02:46:56;24.33;;;14.90;;
31043;SDS011;17710;52.520;13.352;2023-10-19T02:49:24;28.65;;;15.43;;
31043;SDS011;17710;52.520;13.352;2023-10-19T02:51:52;27.27;;;15.50;;
31043;SDS011;17710;52.520;13.352;2023-10-19T02:54:20;27.20;;;14.50;;
31043;SDS011;17710;52.520;13.352;2023-10-19T02:56:49;24.65;;;15.10;;
31043;SDS011;17710;52.520;13.352;2023-10-19T02:59:18;25.33;;;14.82;;
31043;SDS011;17710;52.520;13.352;2023-10-19T03:01:47;26.88;;;14.40;;
31043;SDS011;17710;52.520;13.352;2023-10-19T03:04:16;28.08;;;14.98;;
31043;SDS011;17710;52.520;13.352;2023-10-19T03:06:42;34.00;;;15.63;;
31043;SDS011;17710;52.520;13.352;2023-10-19T03:09:09;27.65;;;14.95;;
31043;SDS011;17710;52.520;13.352;2023-10-19T03:11:38;25.25;;;14.88;;
31043;SDS011;17710;52.520;13.352;2023-10-19T03:14:05;27.10;;;15.63;;
31043;SDS011;17710;52.520;13.352;2023-10-19T03:18:57;31.77;;;15.18;;
31043;SDS011;17710;52.520;13.352;2023-10-19T03:23:53;32.75;;;15.45;;
31043;SDS011;17710;52.520;13.352;2023-10-19T03:28:55;27.80;;;15.40;;
31043;SDS011;17710;52.520;13.352;2023-10-19T03:33:50;27.25;;;15.20;;
31043;SDS011;17710;52.520;13.352;2023-10-19T03:36:19;28.95;;;15.63;;
31043;SDS011;17710;52.520;13.352;2023-10-19T03:38:48;35.38;;;16.70;;
31043;SDS011;17710;52.520;13.352;2023-10-19T03:41:16;27.35;;;15.10;;
31043;SDS011;17710;52.520;13.352;2023-10-19T03:43:46;30.08;;;15.63;;
31043;SDS011;17710;52.520;13.352;2023-10-19T03:46:14;34.72;;;15.13;;
31043;SDS011;17710;52.520;13.352;2023-10-19T03:48:47;27.45;;;14.82;;
31043;SDS011;17710;52.520;13.352;2023-10-19T03:51:14;32.35;;;15.52;;
31043;SDS011;17710;52.520;13.352;2023-10-19T03:53:43;29.02;;;16.10;;
31043;SDS011;17710;52.520;13.352;2023-10-19T03:56:15;25.60;;;15.02;;
31043;SDS011;17710;52.520;13.352;2023-10-19T03:58:42;30.23;;;15.18;;
31043;SDS011;17710;52.520;13.352;2023-10-19T04:01:12;32.33;;;16.00;;
31043;SDS011;17710;52.520;13.352;2023-10-19T04:03:41;30.02;;;16.20;;
31043;SDS011;17710;52.520;13.352;2023-10-19T04:06:08;30.77;;;16.52;;
31043;SDS011;17710;52.520;13.352;2023-10-19T04:08:39;26.73;;;15.63;;
31043;SDS011;17710;52.520;13.352;2023-10-19T04:11:05;29.02;;;15.73;;
31043;SDS011;17710;52.520;13.352;2023-10-19T04:13:38;25.80;;;16.10;;
31043;SDS011;17710;52.520;13.352;2023-10-19T04:16:04;29.48;;;15.82;;
31043;SDS011;17710;52.520;13.352;2023-10-19T04:18:33;32.25;;;17.08;;
31043;SDS011;17710;52.520;13.352;2023-10-19T04:21:03;32.35;;;16.40;;
31043;SDS011;17710;52.520;13.352;2023-10-19T04:23:29;34.97;;;17.50;;
31043;SDS011;17710;52.520;13.352;2023-10-19T04:26:00;29.05;;;16.95;;
31043;SDS011;17710;52.520;13.352;2023-10-19T04:28:30;29.75;;;16.77;;
31043;SDS011;17710;52.520;13.352;2023-10-19T04:30:58;34.75;;;17.27;;
31043;SDS011;17710;52.520;13.352;2023-10-19T04:33:28;30.30;;;16.77;;
31043;SDS011;17710;52.520;13.352;2023-10-19T04:35:55;27.20;;;15.20;;
31043;SDS011;17710;52.520;13.352;2023-10-19T04:38:24;29.85;;;16.67;;
31043;SDS011;17710;52.520;13.352;2023-10-19T04:40:51;32.92;;;16.38;;
31043;SDS011;17710;52.520;13.352;2023-10-19T04:43:17;29.77;;;16.85;;
31043;SDS011;17710;52.520;13.352;2023-10-19T04:45:44;34.25;;;16.98;;
31043;SDS011;17710;52.520;13.352;2023-10-19T04:48:11;29.67;;;16.85;;
31043;SDS011;17710;52.520;13.352;2023-10-19T04:50:38;29.58;;;16.77;;
31043;SDS011;17710;52.520;13.352;2023-10-19T04:53:04;32.00;;;17.25;;
31043;SDS011;17710;52.520;13.352;2023-10-19T04:55:31;34.58;;;17.23;;
31043;SDS011;17710;52.520;13.352;2023-10-19T04:57:57;34.03;;;17.35;;
31043;SDS011;17710;52.520;13.352;2023-10-19T05:00:24;33.22;;;17.35;;
31043;SDS011;17710;52.520;13.352;2023-10-19T05:02:53;34.65;;;17.35;;
31043;SDS011;17710;52.520;13.352;2023-10-19T05:05:21;37.92;;;18.52;;
31043;SDS011;17710;52.520;13.352;2023-10-19T05:07:48;31.48;;;18.05;;
31043;SDS011;17710;52.520;13.352;2023-10-19T05:10:14;38.70;;;18.85;;
31043;SDS011;17710;52.520;13.352;2023-10-19T05:12:40;32.42;;;18.25;;
31043;SDS011;17710;52.520;13.352;2023-10-19T05:15:07;29.50;;;17.67;;
31043;SDS011;17710;52.520;13.352;2023-10-19T05:17:34;32.53;;;17.90;;
31043;SDS011;17710;52.520;13.352;2023-10-19T05:20:00;30.60;;;17.52;;
31043;SDS011;17710;52.520;13.352;2023-10-19T05:22:30;31.67;;;17.38;;
31043;SDS011;17710;52.520;13.352;2023-10-19T05:24:57;33.88;;;18.17;;
31043;SDS011;17710;52.520;13.352;2023-10-19T05:27:24;36.47;;;18.48;;
31043;SDS011;17710;52.520;13.352;2023-10-19T05:29:50;32.78;;;18.40;;
31043;SDS011;17710;52.520;13.352;2023-10-19T05:32:17;34.42;;;19.60;;
31043;SDS011;17710;52.520;13.352;2023-10-19T05:34:44;35.35;;;19.15;;
31043;SDS011;17710;52.520;13.352;2023-10-19T05:37:11;35.53;;;19.27;;
31043;SDS011;17710;52.520;13.352;2023-10-19T05:39:39;32.88;;;18.70;;
31043;SDS011;17710;52.520;13.352;2023-10-19T05:42:05;36.00;;;18.67;;
31043;SDS011;17710;52.520;13.352;2023-10-19T05:44:31;34.90;;;19.60;;
31043;SDS011;17710;52.520;13.352;2023-10-19T05:46:58;35.25;;;18.52;;
31043;SDS011;17710;52.520;13.352;2023-10-19T05:49:24;38.20;;;19.75;;
31043;SDS011;17710;52.520;13.352;2023-10-19T05:51:51;33.42;;;18.77;;
31043;SDS011;17710;52.520;13.352;2023-10-19T05:54:17;36.92;;;19.70;;
31043;SDS011;17710;52.520;13.352;2023-10-19T05:56:45;36.00;;;19.77;;
31043;SDS011;17710;52.520;13.352;2023-10-19T05:59:12;34.05;;;19.42;;
31043;SDS011;17710;52.520;13.352;2023-10-19T06:01:39;36.17;;;19.88;;
31043;SDS011;17710;52.520;13.352;2023-10-19T06:04:06;34.67;;;19.80;;
31043;SDS011;17710;52.520;13.352;2023-10-19T06:06:33;33.65;;;20.52;;
31043;SDS011;17710;52.520;13.352;2023-10-19T06:08:59;36.00;;;19.55;;
31043;SDS011;17710;52.520;13.352;2023-10-19T06:11:28;34.58;;;19.60;;
31043;SDS011;17710;52.520;13.352;2023-10-19T06:13:58;39.53;;;20.33;;
31043;SDS011;17710;52.520;13.352;2023-10-19T06:16:25;37.85;;;20.50;;
31043;SDS011;17710;52.520;13.352;2023-10-19T06:18:52;41.05;;;21.20;;
31043;SDS011;17710;52.520;13.352;2023-10-19T06:21:19;43.17;;;19.80;;
31043;SDS011;17710;52.520;13.352;2023-10-19T06:23:46;35.58;;;20.35;;
31043;SDS011;17710;52.520;13.352;2023-10-19T06:26:12;41.42;;;21.10;;
31043;SDS011;17710;52.520;13.352;2023-10-19T06:28:39;40.00;;;20.92;;
31043;SDS011;17710;52.520;13.352;2023-10-19T06:31:07;35.17;;;19.33;;
31043;SDS011;17710;52.520;13.352;2023-10-19T06:33:34;34.22;;;20.60;;
31043;SDS011;17710;52.520;13.352;2023-10-19T06:36:01;39.40;;;20.38;;
31043;SDS011;17710;52.520;13.352;2023-10-19T06:38:28;40.72;;;20.58;;
31043;SDS011;17710;52.520;13.352;2023-10-19T06:40:56;38.25;;;21.48;;
31043;SDS011;17710;52.520;13.352;2023-10-19T06:43:23;48.05;;;22.35;;
31043;SDS011;17710;52.520;13.352;2023-10-19T06:45:53;40.63;;;20.67;;
31043;SDS011;17710;52.520;13.352;2023-10-19T06:48:21;42.22;;;21.75;;
31043;SDS011;17710;52.520;13.352;2023-10-19T06:50:48;38.22;;;20.50;;
31043;SDS011;17710;52.520;13.352;2023-10-19T06:53:15;40.83;;;21.48;;
31043;SDS011;17710;52.520;13.352;2023-10-19T06:55:41;43.95;;;21.65;;
31043;SDS011;17710;52.520;13.352;2023-10-19T06:58:08;38.70;;;21.20;;
31043;SDS011;17710;52.520;13.352;2023-10-19T07:00:35;43.00;;;20.67;;
31043;SDS011;17710;52.520;13.352;2023-10-19T07:03:07;41.25;;;20.65;;
31043;SDS011;17710;52.520;13.352;2023-10-19T07:05:35;38.75;;;21.88;;
31043;SDS011;17710;52.520;13.352;2023-10-19T07:08:01;37.25;;;21.13;;
31043;SDS011;17710;52.520;13.352;2023-10-19T07:10:31;39.53;;;19.92;;
31043;SDS011;17710;52.520;13.352;2023-10-19T07:12:59;36.97;;;20.15;;
31043;SDS011;17710;52.520;13.352;2023-10-19T07:15:26;36.38;;;20.58;;
31043;SDS011;17710;52.520;13.352;2023-10-19T07:17:54;39.33;;;21.05;;
31043;SDS011;17710;52.520;13.352;2023-10-19T07:20:21;38.42;;;19.55;;
31043;SDS011;17710;52.520;13.352;2023-10-19T07:22:53;39.33;;;20.67;;
31043;SDS011;17710;52.520;13.352;2023-10-19T07:25:20;37.15;;;19.70;;
31043;SDS011;17710;52.520;13.352;2023-10-19T07:27:47;37.67;;;20.45;;
31043;SDS011;17710;52.520;13.352;2023-10-19T07:30:14;37.70;;;20.63;;
31043;SDS011;17710;52.520;13.352;2023-10-19T07:32:45;35.72;;;21.08;;
31043;SDS011;17710;52.520;13.352;2023-10-19T07:35:14;39.22;;;19.60;;
31043;SDS011;17710;52.520;13.352;2023-10-19T07:37:40;33.97;;;19.63;;
31043;SDS011;17710;52.520;13.352;2023-10-19T07:40:10;38.60;;;20.00;;
31043;SDS011;17710;52.520;13.352;2023-10-19T07:42:38;32.22;;;19.27;;
31043;SDS011;17710;52.520;13.352;2023-10-19T07:45:05;40.08;;;21.10;;
31043;SDS011;17710;52.520;13.352;2023-10-19T07:47:36;34.28;;;19.25;;
31043;SDS011;17710;52.520;13.352;2023-10-19T07:50:03;35.22;;;19.17;;
31043;SDS011;17710;52.520;13.352;2023-10-19T07:52:30;38.85;;;18.65;;
31043;SDS011;17710;52.520;13.352;2023-10-19T07:54:56;33.85;;;18.98;;
31043;SDS011;17710;52.520;13.352;2023-10-19T07:57:24;34.55;;;18.70;;
31043;SDS011;17710;52.520;13.352;2023-10-19T07:59:50;35.40;;;17.83;;
31043;SDS011;17710;52.520;13.352;2023-10-19T08:02:23;34.65;;;18.70;;
31043;SDS011;17710;52.520;13.352;2023-10-19T08:04:49;31.25;;;17.02;;
31043;SDS011;17710;52.520;13.352;2023-10-19T08:07:16;34.25;;;17.83;;
31043;SDS011;17710;52.520;13.352;2023-10-19T08:09:48;33.40;;;17.98;;
31043;SDS011;17710;52.520;13.352;2023-10-19T08:12:15;32.78;;;17.88;;
31043;SDS011;17710;52.520;13.352;2023-10-19T08:14:43;33.22;;;18.60;;
31043;SDS011;17710;52.520;13.352;2023-10-19T08:17:11;36.33;;;17.58;;
31043;SDS011;17710;52.520;13.352;2023-10-19T08:19:38;29.73;;;17.23;;
31043;SDS011;17710;52.520;13.352;2023-10-19T08:22:04;34.25;;;18.90;;
31043;SDS011;17710;52.520;13.352;2023-10-19T08:24:39;31.05;;;16.65;;
31043;SDS011;17710;52.520;13.352;2023-10-19T08:27:08;35.97;;;18.42;;
31043;SDS011;17710;52.520;13.352;2023-10-19T08:29:36;32.72;;;18.25;;
31043;SDS011;17710;52.520;13.352;2023-10-19T08:32:03;38.72;;;18.70;;
31043;SDS011;17710;52.520;13.352;2023-10-19T08:34:33;43.83;;;19.13;;
31043;SDS011;17710;52.520;13.352;2023-10-19T08:37:00;34.60;;;18.92;;
31043;SDS011;17710;52.520;13.352;2023-10-19T08:39:27;30.98;;;16.92;;
31043;SDS011;17710;52.520;13.352;2023-10-19T08:42:00;35.92;;;18.30;;
31043;SDS011;17710;52.520;13.352;2023-10-19T08:44:28;39.63;;;18.85;;
31043;SDS011;17710;52.520;13.352;2023-10-19T08:46:55;33.50;;;17.85;;
31043;SDS011;17710;52.520;13.352;2023-10-19T08:49:23;32.50;;;18.38;;
31043;SDS011;17710;52.520;13.352;2023-10-19T08:51:51;31.27;;;17.42;;
31043;SDS011;17710;52.520;13.352;2023-10-19T08:54:20;35.17;;;17.63;;
31043;SDS011;17710;52.520;13.352;2023-10-19T08:56:46;27.60;;;16.08;;
31043;SDS011;17710;52.520;13.352;2023-10-19T08:59:13;34.95;;;16.95;;
31043;SDS011;17710;52.520;13.352;2023-10-19T09:01:41;34.15;;;17.30;;
31043;SDS011;17710;52.520;13.352;2023-10-19T09:04:09;34.63;;;16.95;;
31043;SDS011;17710;52.520;13.352;2023-10-19T09:06:37;30.15;;;16.48;;
31043;SDS011;17710;52.520;13.352;2023-10-19T09:09:07;27.55;;;16.70;;
31043;SDS011;17710;52.520;13.352;2023-10-19T09:11:38;31.95;;;16.88;;
31043;SDS011;17710;52.520;13.352;2023-10-19T09:14:05;30.15;;;16.85;;
31043;SDS011;17710;52.520;13.352;2023-10-19T09:16:32;31.30;;;16.23;;
31043;SDS011;17710;52.520;13.352;2023-10-19T09:18:59;29.95;;;17.08;;
31043;SDS011;17710;52.520;13.352;2023-10-19T09:21:26;49.40;;;18.08;;
31043;SDS011;17710;52.520;13.352;2023-10-19T09:23:55;34.90;;;17.23;;
31043;SDS011;17710;52.520;13.352;2023-10-19T09:26:22;28.85;;;16.52;;
31043;SDS011;17710;52.520;13.352;2023-10-19T09:28:50;31.02;;;17.27;;
31043;SDS011;17710;52.520;13.352;2023-10-19T09:31:19;33.70;;;17.20;;
31043;SDS011;17710;52.520;13.352;2023-10-19T09:33:46;30.55;;;16.38;;
31043;SDS011;17710;52.520;13.352;2023-10-19T09:36:14;29.52;;;16.33;;
31043;SDS011;17710;52.520;13.352;2023-10-19T09:38:44;30.23;;;16.42;;
31043;SDS011;17710;52.520;13.352;2023-10-19T09:41:15;32.05;;;17.15;;
31043;SDS011;17710;52.520;13.352;2023-10-19T09:43:43;30.83;;;17.02;;
31043;SDS011;17710;52.520;13.352;2023-10-19T09:46:11;27.67;;;16.20;;
31043;SDS011;17710;52.520;13.352;2023-10-19T09:48:39;32.50;;;16.52;;
31043;SDS011;17710;52.520;13.352;2023-10-19T09:51:07;29.33;;;16.77;;
31043;SDS011;17710;52.520;13.352;2023-10-19T09:53:36;35.78;;;17.58;;
31043;SDS011;17710;52.520;13.352;2023-10-19T09:56:05;28.08;;;15.75;;
31043;SDS011;17710;52.520;13.352;2023-10-19T09:58:36;29.80;;;16.98;;
31043;SDS011;17710;52.520;13.352;2023-10-19T10:01:08;29.63;;;16.33;;
31043;SDS011;17710;52.520;13.352;2023-10-19T10:03:44;29.65;;;16.25;;
31043;SDS011;17710;52.520;13.352;2023-10-19T10:06:12;26.25;;;16.10;;
31043;SDS011;17710;52.520;13.352;2023-10-19T10:08:40;32.78;;;16.83;;
31043;SDS011;17710;52.520;13.352;2023-10-19T10:11:18;27.77;;;16.27;;
31043;SDS011;17710;52.520;13.352;2023-10-19T10:13:54;30.85;;;16.45;;
31043;SDS011;17710;52.520;13.352;2023-10-19T10:16:22;28.25;;;16.23;;
31043;SDS011;17710;52.520;13.352;2023-10-19T10:18:50;32.80;;;16.05;;
31043;SDS011;17710;52.520;13.352;2023-10-19T10:21:21;30.05;;;17.30;;
31043;SDS011;17710;52.520;13.352;2023-10-19T10:23:49;30.83;;;16.67;;
31043;SDS011;17710;52.520;13.352;2023-10-19T10:26:19;29.50;;;16.30;;
31043;SDS011;17710;52.520;13.352;2023-10-19T10:31:40;29.33;;;16.67;;
31043;SDS011;17710;52.520;13.352;2023-10-19T10:34:08;33.10;;;16.58;;
31043;SDS011;17710;52.520;13.352;2023-10-19T10:39:24;34.55;;;19.20;;
31043;SDS011;17710;52.520;13.352;2023-10-19T10:41:54;37.72;;;19.00;;
31043;SDS011;17710;52.520;13.352;2023-10-19T10:44:34;33.72;;;19.33;;
31043;SDS011;17710;52.520;13.352;2023-10-19T10:47:01;30.10;;;17.63;;
31043;SDS011;17710;52.520;13.352;2023-10-19T10:49:28;34.55;;;18.35;;
31043;SDS011;17710;52.520;13.352;2023-10-19T10:51:54;34.72;;;18.35;;
31043;SDS011;17710;52.520;13.352;2023-10-19T10:54:21;31.15;;;17.80;;
31043;SDS011;17710;52.520;13.352;2023-10-19T10:56:49;33.75;;;18.33;;
31043;SDS011;17710;52.520;13.352;2023-10-19T10:59:16;31.80;;;18.63;;
31043;SDS011;17710;52.520;13.352;2023-10-19T11:01:44;39.00;;;19.15;;
31043;SDS011;17710;52.520;13.352;2023-10-19T11:04:10;35.85;;;19.75;;
31043;SDS011;17710;52.520;13.352;2023-10-19T11:06:47;37.90;;;19.27;;
31043;SDS011;17710;52.520;13.352;2023-10-19T11:09:14;34.05;;;20.10;;
31043;SDS011;17710;52.520;13.352;2023-10-19T11:11:43;34.55;;;20.00;;
31043;SDS011;17710;52.520;13.352;2023-10-19T11:14:09;37.28;;;19.77;;
31043;SDS011;17710;52.520;13.352;2023-10-19T11:16:37;42.40;;;20.58;;
31043;SDS011;17710;52.520;13.352;2023-10-19T11:19:05;36.13;;;20.42;;
31043;SDS011;17710;52.520;13.352;2023-10-19T11:21:32;35.58;;;20.10;;
31043;SDS011;17710;52.520;13.352;2023-10-19T11:23:59;38.45;;;20.17;;
31043;SDS011;17710;52.520;13.352;2023-10-19T11:26:25;41.65;;;20.83;;
31043;SDS011;17710;52.520;13.352;2023-10-19T11:28:56;44.13;;;20.73;;
31043;SDS011;17710;52.520;13.352;2023-10-19T11:31:24;39.20;;;20.73;;
31043;SDS011;17710;52.520;13.352;2023-10-19T11:33:52;41.65;;;22.33;;
31043;SDS011;17710;52.520;13.352;2023-10-19T11:36:21;39.33;;;21.42;;
31043;SDS011;17710;52.520;13.352;2023-10-19T11:38:49;42.08;;;21.92;;
31043;SDS011;17710;52.520;13.352;2023-10-19T11:41:17;37.95;;;21.63;;
31043;SDS011;17710;52.520;13.352;2023-10-19T11:43:44;40.97;;;20.63;;
31043;SDS011;17710;52.520;13.352;2023-10-19T11:46:11;40.08;;;21.52;;
31043;SDS011;17710;52.520;13.352;2023-10-19T11:48:39;38.35;;;20.88;;
31043;SDS011;17710;52.520;13.352;2023-10-19T11:51:07;36.63;;;21.35;;
31043;SDS011;17710;52.520;13.352;2023-10-19T11:53:37;39.20;;;21.85;;
31043;SDS011;17710;52.520;13.352;2023-10-19T11:56:05;39.53;;;22.50;;
31043;SDS011;17710;52.520;13.352;2023-10-19T11:58:33;39.10;;;21.50;;
31043;SDS011;17710;52.520;13.352;2023-10-19T12:01:00;39.53;;;22.52;;
31043;SDS011;17710;52.520;13.352;2023-10-19T12:03:28;42.95;;;22.65;;
31043;SDS011;17710;52.520;13.352;2023-10-19T12:05:54;41.17;;;22.67;;
31043;SDS011;17710;52.520;13.352;2023-10-19T12:08:21;34.75;;;20.70;;
31043;SDS011;17710;52.520;13.352;2023-10-19T12:10:50;37.88;;;22.63;;
31043;SDS011;17710;52.520;13.352;2023-10-19T12:13:16;40.25;;;21.50;;
31043;SDS011;17710;52.520;13.352;2023-10-19T12:15:43;39.55;;;21.83;;
31043;SDS011;17710;52.520;13.352;2023-10-19T12:18:16;38.00;;;22.85;;
31043;SDS011;17710;52.520;13.352;2023-10-19T12:20:43;39.17;;;22.00;;
31043;SDS011;17710;52.520;13.352;2023-10-19T12:23:10;38.80;;;21.70;;
31043;SDS011;17710;52.520;13.352;2023-10-19T12:25:37;38.22;;;23.20;;
31043;SDS011;17710;52.520;13.352;2023-10-19T12:28:05;43.60;;;23.30;;
31043;SDS011;17710;52.520;13.352;2023-10-19T12:30:32;41.80;;;22.02;;
31043;SDS011;17710;52.520;13.352;2023-10-19T12:33:01;41.25;;;22.48;;
31043;SDS011;17710;52.520;13.352;2023-10-19T12:35:32;37.92;;;22.77;;
31043;SDS011;17710;52.520;13.352;2023-10-19T12:38:09;34.95;;;21.23;;
31043;SDS011;17710;52.520;13.352;2023-10-19T12:40:42;37.80;;;22.45;;
31043;SDS011;17710;52.520;13.352;2023-10-19T12:43:10;35.58;;;22.25;;
31043;SDS011;17710;52.520;13.352;2023-10-19T12:45:37;36.97;;;22.73;;
31043;SDS011;17710;52.520;13.352;2023-10-19T12:48:04;44.85;;;23.10;;
31043;SDS011;17710;52.520;13.352;2023-10-19T12:50:31;40.63;;;22.88;;
31043;SDS011;17710;52.520;13.352;2023-10-19T12:52:59;39.15;;;23.45;;
31043;SDS011;17710;52.520;13.352;2023-10-19T12:55:26;42.63;;;22.42;;
31043;SDS011;17710;52.520;13.352;2023-10-19T12:57:52;39.95;;;23.33;;
31043;SDS011;17710;52.520;13.352;2023-10-19T13:00:22;44.35;;;22.50;;
31043;SDS011;17710;52.520;13.352;2023-10-19T13:02:50;41.33;;;22.77;;
31043;SDS011;17710;52.520;13.352;2023-10-19T13:05:24;39.47;;;23.20;;
31043;SDS011;17710;52.520;13.352;2023-10-19T13:07:52;42.90;;;23.75;;
31043;SDS011;17710;52.520;13.352;2023-10-19T13:10:18;39.83;;;23.48;;
31043;SDS011;17710;52.520;13.352;2023-10-19T13:12:45;46.55;;;24.10;;
31043;SDS011;17710;52.520;13.352;2023-10-19T13:15:12;41.30;;;24.88;;
31043;SDS011;17710;52.520;13.352;2023-10-19T13:17:40;42.85;;;24.60;;
31043;SDS011;17710;52.520;13.352;2023-10-19T13:20:08;44.40;;;23.98;;
31043;SDS011;17710;52.520;13.352;2023-10-19T13:22:43;45.05;;;24.27;;
31043;SDS011;17710;52.520;13.352;2023-10-19T13:25:10;41.03;;;23.67;;
31043;SDS011;17710;52.520;13.352;2023-10-19T13:27:38;43.35;;;25.17;;
31043;SDS011;17710;52.520;13.352;2023-10-19T13:30:07;44.90;;;24.92;;
31043;SDS011;17710;52.520;13.352;2023-10-19T13:32:35;49.42;;;25.70;;
31043;SDS011;17710;52.520;13.352;2023-10-19T13:35:03;43.47;;;24.15;;
31043;SDS011;17710;52.520;13.352;2023-10-19T13:37:30;46.90;;;25.58;;
31043;SDS011;17710;52.520;13.352;2023-10-19T13:39:57;50.63;;;24.88;;
31043;SDS011;17710;52.520;13.352;2023-10-19T13:42:24;51.17;;;26.85;;
31043;SDS011;17710;52.520;13.352;2023-10-19T13:44:50;41.10;;;24.38;;
31043;SDS011;17710;52.520;13.352;2023-10-19T13:47:17;44.97;;;25.13;;
31043;SDS011;17710;52.520;13.352;2023-10-19T13:49:43;44.60;;;25.95;;
31043;SDS011;17710;52.520;13.352;2023-10-19T13:52:12;49.67;;;25.85;;
31043;SDS011;17710;52.520;13.352;2023-10-19T13:54:40;47.78;;;26.38;;
31043;SDS011;17710;52.520;13.352;2023-10-19T13:57:06;48.25;;;25.70;;
31043;SDS011;17710;52.520;13.352;2023-10-19T13:59:33;46.00;;;25.52;;
31043;SDS011;17710;52.520;13.352;2023-10-19T14:02:00;43.15;;;24.58;;
31043;SDS011;17710;52.520;13.352;2023-10-19T14:04:26;44.72;;;26.42;;
31043;SDS011;17710;52.520;13.352;2023-10-19T14:06:52;47.65;;;26.33;;
31043;SDS011;17710;52.520;13.352;2023-10-19T14:09:20;49.05;;;25.73;;
31043;SDS011;17710;52.520;13.352;2023-10-19T14:11:48;43.08;;;25.05;;
31043;SDS011;17710;52.520;13.352;2023-10-19T14:14:16;41.08;;;23.90;;
31043;SDS011;17710;52.520;13.352;2023-10-19T14:16:42;46.38;;;24.50;;
31043;SDS011;17710;52.520;13.352;2023-10-19T14:19:09;38.95;;;24.02;;
31043;SDS011;17710;52.520;13.352;2023-10-19T14:21:35;45.15;;;24.67;;
31043;SDS011;17710;52.520;13.352;2023-10-19T14:24:05;43.45;;;24.38;;
31043;SDS011;17710;52.520;13.352;2023-10-19T14:26:34;43.97;;;24.77;;
31043;SDS011;17710;52.520;13.352;2023-10-19T14:29:01;46.47;;;24.48;;
31043;SDS011;17710;52.520;13.352;2023-10-19T14:31:27;42.05;;;24.85;;
31043;SDS011;17710;52.520;13.352;2023-10-19T14:33:53;42.58;;;24.48;;
31043;SDS011;17710;52.520;13.352;2023-10-19T14:36:22;44.28;;;25.15;;
31043;SDS011;17710;52.520;13.352;2023-10-19T14:38:49;46.20;;;25.38;;
31043;SDS011;17710;52.520;13.352;2023-10-19T14:41:15;41.33;;;25.30;;
31043;SDS011;17710;52.520;13.352;2023-10-19T14:43:43;45.25;;;24.05;;